sensor_id;sensor_type;location;lat;lon;timestamp;temperature;humidity
22416;DHT22;12204;50.600;4.608;2024-03-23T00:54:29;21.90;79.90
22416;DHT22;12204;50.600;4.608;2024-03-23T00:59:31;21.90;80.70
22416;DHT22;12204;50.600;4.608;2024-03-23T01:04:34;21.90;80.60
22416;DHT22;12204;50.600;4.608;2024-03-23T01:09:38;21.90;80.50
22416;DHT22;12204;50.600;4.608;2024-03-23T01:14:40;21.80;80.50
22416;DHT22;12204;50.600;4.608;2024-03-23T01:19:43;21.90;80.40
22416;DHT22;12204;50.600;4.608;2024-03-23T01:24:47;21.90;80.20
22416;DHT22;12204;50.600;4.608;2024-03-23T01:29:49;21.90;80.10
22416;DHT22;12204;50.600;4.608;2024-03-23T01:34:53;21.90;80.10
22416;DHT22;12204;50.600;4.608;2024-03-23T01:39:56;21.80;80.00
22416;DHT22;12204;50.600;4.608;2024-03-23T01:44:59;21.90;80.20
22416;DHT22;12204;50.600;4.608;2024-03-23T01:50:01;21.80;79.90
22416;DHT22;12204;50.600;4.608;2024-03-23T01:55:07;21.90;80.00
22416;DHT22;12204;50.600;4.608;2024-03-23T02:00:11;21.80;80.10
22416;DHT22;12204;50.600;4.608;2024-03-23T02:05:15;21.80;80.20
22416;DHT22;12204;50.600;4.608;2024-03-23T02:10:19;21.80;80.60
22416;DHT22;12204;50.600;4.608;2024-03-23T02:15:22;21.80;80.50
22416;DHT22;12204;50.600;4.608;2024-03-23T02:20:24;21.80;80.50
22416;DHT22;12204;50.600;4.608;2024-03-23T02:25:28;21.90;80.90
22416;DHT22;12204;50.600;4.608;2024-03-23T02:30:30;21.90;80.90
22416;DHT22;12204;50.600;4.608;2024-03-23T02:35:33;21.80;81.10
22416;DHT22;12204;50.600;4.608;2024-03-23T02:40:37;21.90;80.80
22416;DHT22;12204;50.600;4.608;2024-03-23T02:45:39;21.80;80.80
22416;DHT22;12204;50.600;4.608;2024-03-23T02:50:41;21.80;80.70
22416;DHT22;12204;50.600;4.608;2024-03-23T02:55:45;21.80;81.20
22416;DHT22;12204;50.600;4.608;2024-03-23T03:00:48;21.90;81.10
22416;DHT22;12204;50.600;4.608;2024-03-23T03:05:55;21.90;80.80
22416;DHT22;12204;50.600;4.608;2024-03-23T03:10:59;21.80;80.90
22416;DHT22;12204;50.600;4.608;2024-03-23T03:16:01;21.80;80.90
22416;DHT22;12204;50.600;4.608;2024-03-23T03:21:04;21.80;80.80
22416;DHT22;12204;50.600;4.608;2024-03-23T03:26:12;21.80;81.00
22416;DHT22;12204;50.600;4.608;2024-03-23T03:31:15;21.80;80.80
22416;DHT22;12204;50.600;4.608;2024-03-23T03:36:18;21.80;80.80
22416;DHT22;12204;50.600;4.608;2024-03-23T03:41:22;21.80;80.70
22416;DHT22;12204;50.600;4.608;2024-03-23T03:46:24;21.80;80.60
22416;DHT22;12204;50.600;4.608;2024-03-23T03:51:26;21.80;80.60
22416;DHT22;12204;50.600;4.608;2024-03-23T03:56:30;21.80;80.40
22416;DHT22;12204;50.600;4.608;2024-03-23T04:01:33;21.80;80.40
22416;DHT22;12204;50.600;4.608;2024-03-23T04:06:36;21.80;80.40
22416;DHT22;12204;50.600;4.608;2024-03-23T04:11:39;21.70;80.40
22416;DHT22;12204;50.600;4.608;2024-03-23T04:16:42;21.70;80.30
22416;DHT22;12204;50.600;4.608;2024-03-23T04:21:45;21.70;80.30
22416;DHT22;12204;50.600;4.608;2024-03-23T04:26:49;21.70;80.40
22416;DHT22;12204;50.600;4.608;2024-03-23T04:31:51;21.70;80.60
22416;DHT22;12204;50.600;4.608;2024-03-23T04:36:53;21.70;80.60
22416;DHT22;12204;50.600;4.608;2024-03-23T04:41:57;21.70;80.80
22416;DHT22;12204;50.600;4.608;2024-03-23T04:47:00;21.70;81.30
22416;DHT22;12204;50.600;4.608;2024-03-23T04:52:03;21.70;80.60
22416;DHT22;12204;50.600;4.608;2024-03-23T04:57:08;21.70;80.60
22416;DHT22;12204;50.600;4.608;2024-03-23T05:02:10;21.70;80.50
22416;DHT22;12204;50.600;4.608;2024-03-23T05:07:13;21.70;80.40
22416;DHT22;12204;50.600;4.608;2024-03-23T05:12:17;21.70;80.40
22416;DHT22;12204;50.600;4.608;2024-03-23T05:17:20;21.70;80.70
22416;DHT22;12204;50.600;4.608;2024-03-23T05:22:22;21.70;80.30
22416;DHT22;12204;50.600;4.608;2024-03-23T05:27:26;21.70;80.40
22416;DHT22;12204;50.600;4.608;2024-03-23T05:32:28;21.70;80.20
22416;DHT22;12204;50.600;4.608;2024-03-23T05:37:31;21.70;80.20
22416;DHT22;12204;50.600;4.608;2024-03-23T05:42:36;21.70;80.00
22416;DHT22;12204;50.600;4.608;2024-03-23T05:47:38;21.70;79.90
22416;DHT22;12204;50.600;4.608;2024-03-23T05:52:41;21.70;79.90
22416;DHT22;12204;50.600;4.608;2024-03-23T05:57:45;21.70;79.80
22416;DHT22;12204;50.600;4.608;2024-03-23T06:02:48;21.70;79.90
22416;DHT22;12204;50.600;4.608;2024-03-23T06:07:50;21.70;80.10
22416;DHT22;12204;50.600;4.608;2024-03-23T06:12:54;21.70;80.20
22416;DHT22;12204;50.600;4.608;2024-03-23T06:17:57;21.70;80.10
22416;DHT22;12204;50.600;4.608;2024-03-23T06:23:00;21.70;80.30
22416;DHT22;12204;50.600;4.608;2024-03-23T06:28:04;21.70;79.70
22416;DHT22;12204;50.600;4.608;2024-03-23T06:33:07;21.70;79.90
22416;DHT22;12204;50.600;4.608;2024-03-23T06:38:10;21.70;79.80
22416;DHT22;12204;50.600;4.608;2024-03-23T06:43:13;21.70;79.70
22416;DHT22;12204;50.600;4.608;2024-03-23T06:48:16;21.70;79.60
22416;DHT22;12204;50.600;4.608;2024-03-23T06:53:19;21.60;79.20
22416;DHT22;12204;50.600;4.608;2024-03-23T06:58:24;21.60;77.10
22416;DHT22;12204;50.600;4.608;2024-03-23T07:03:27;21.50;73.30
22416;DHT22;12204;50.600;4.608;2024-03-23T07:08:29;21.20;70.80
22416;DHT22;12204;50.600;4.608;2024-03-23T07:13:33;21.10;68.90
22416;DHT22;12204;50.600;4.608;2024-03-23T07:18:36;21.00;66.40
22416;DHT22;12204;50.600;4.608;2024-03-23T07:23:41;20.80;66.30
22416;DHT22;12204;50.600;4.608;2024-03-23T07:28:47;20.80;65.50
22416;DHT22;12204;50.600;4.608;2024-03-23T07:33:50;20.70;64.70
22416;DHT22;12204;50.600;4.608;2024-03-23T07:38:52;20.70;63.60
22416;DHT22;12204;50.600;4.608;2024-03-23T07:43:56;20.50;62.60
22416;DHT22;12204;50.600;4.608;2024-03-23T07:48:59;20.50;62.40
22416;DHT22;12204;50.600;4.608;2024-03-23T07:54:01;20.50;67.00
22416;DHT22;12204;50.600;4.608;2024-03-23T07:59:05;20.40;66.50
22416;DHT22;12204;50.600;4.608;2024-03-23T08:04:08;20.40;66.00
22416;DHT22;12204;50.600;4.608;2024-03-23T08:09:11;20.40;64.90
22416;DHT22;12204;50.600;4.608;2024-03-23T08:14:14;20.30;63.40
22416;DHT22;12204;50.600;4.608;2024-03-23T08:19:17;20.20;61.80
22416;DHT22;12204;50.600;4.608;2024-03-23T08:24:19;20.20;62.00
22416;DHT22;12204;50.600;4.608;2024-03-23T08:29:23;20.20;64.00
22416;DHT22;12204;50.600;4.608;2024-03-23T08:34:26;20.30;64.50
22416;DHT22;12204;50.600;4.608;2024-03-23T08:39:28;20.30;64.70
22416;DHT22;12204;50.600;4.608;2024-03-23T08:44:32;20.40;65.20
22416;DHT22;12204;50.600;4.608;2024-03-23T08:49:34;20.40;65.60
22416;DHT22;12204;50.600;4.608;2024-03-23T08:54:37;20.40;66.10
22416;DHT22;12204;50.600;4.608;2024-03-23T08:59:41;20.50;66.70
22416;DHT22;12204;50.600;4.608;2024-03-23T09:04:44;20.50;66.90
22416;DHT22;12204;50.600;4.608;2024-03-23T09:09:47;20.50;67.30
22416;DHT22;12204;50.600;4.608;2024-03-23T09:14:51;20.50;67.50
22416;DHT22;12204;50.600;4.608;2024-03-23T09:19:54;20.50;67.70
22416;DHT22;12204;50.600;4.608;2024-03-23T09:24:57;20.50;68.00
22416;DHT22;12204;50.600;4.608;2024-03-23T09:30:01;20.50;68.10
22416;DHT22;12204;50.600;4.608;2024-03-23T09:35:04;20.50;68.20
22416;DHT22;12204;50.600;4.608;2024-03-23T09:40:09;20.50;68.20
22416;DHT22;12204;50.600;4.608;2024-03-23T09:45:17;20.60;68.50
22416;DHT22;12204;50.600;4.608;2024-03-23T09:50:24;20.60;68.60
22416;DHT22;12204;50.600;4.608;2024-03-23T09:55:26;20.60;68.70
22416;DHT22;12204;50.600;4.608;2024-03-23T10:00:30;20.60;69.00
22416;DHT22;12204;50.600;4.608;2024-03-23T10:05:33;20.60;68.90
22416;DHT22;12204;50.600;4.608;2024-03-23T10:10:36;20.60;68.70
22416;DHT22;12204;50.600;4.608;2024-03-23T10:15:40;20.60;68.60
22416;DHT22;12204;50.600;4.608;2024-03-23T10:20:42;20.60;68.60
22416;DHT22;12204;50.600;4.608;2024-03-23T10:25:45;20.60;68.80
22416;DHT22;12204;50.600;4.608;2024-03-23T10:30:49;20.60;68.70
22416;DHT22;12204;50.600;4.608;2024-03-23T10:35:52;20.60;68.70
22416;DHT22;12204;50.600;4.608;2024-03-23T10:40:55;20.70;70.50
22416;DHT22;12204;50.600;4.608;2024-03-23T10:45:59;20.70;70.90
22416;DHT22;12204;50.600;4.608;2024-03-23T10:51:02;20.70;70.60
22416;DHT22;12204;50.600;4.608;2024-03-23T10:56:06;20.70;70.50
22416;DHT22;12204;50.600;4.608;2024-03-23T11:01:12;20.70;70.30
22416;DHT22;12204;50.600;4.608;2024-03-23T11:06:34;20.70;70.10
22416;DHT22;12204;50.600;4.608;2024-03-23T11:11:38;20.70;70.10
22416;DHT22;12204;50.600;4.608;2024-03-23T11:16:42;20.70;70.10
22416;DHT22;12204;50.600;4.608;2024-03-23T11:21:54;20.70;70.00
22416;DHT22;12204;50.600;4.608;2024-03-23T11:26:57;20.70;70.00
22416;DHT22;12204;50.600;4.608;2024-03-23T11:32:02;20.70;69.90
22416;DHT22;12204;50.600;4.608;2024-03-23T11:37:06;20.70;69.70
22416;DHT22;12204;50.600;4.608;2024-03-23T11:42:09;20.70;69.80
22416;DHT22;12204;50.600;4.608;2024-03-23T11:47:12;20.70;69.90
22416;DHT22;12204;50.600;4.608;2024-03-23T11:52:16;20.70;70.60
22416;DHT22;12204;50.600;4.608;2024-03-23T11:57:19;20.70;69.80
22416;DHT22;12204;50.600;4.608;2024-03-23T12:02:22;20.70;69.90
22416;DHT22;12204;50.600;4.608;2024-03-23T12:07:25;20.70;70.00
22416;DHT22;12204;50.600;4.608;2024-03-23T12:12:27;20.70;70.10
22416;DHT22;12204;50.600;4.608;2024-03-23T12:17:31;20.70;70.30
22416;DHT22;12204;50.600;4.608;2024-03-23T12:22:35;20.70;70.20
22416;DHT22;12204;50.600;4.608;2024-03-23T12:27:38;20.70;69.90
22416;DHT22;12204;50.600;4.608;2024-03-23T12:32:41;20.70;69.80
22416;DHT22;12204;50.600;4.608;2024-03-23T12:37:44;20.80;69.90
22416;DHT22;12204;50.600;4.608;2024-03-23T12:42:48;20.80;69.70
22416;DHT22;12204;50.600;4.608;2024-03-23T12:47:52;20.80;69.60
22416;DHT22;12204;50.600;4.608;2024-03-23T12:52:55;20.70;69.50
22416;DHT22;12204;50.600;4.608;2024-03-23T12:57:58;20.70;69.70
22416;DHT22;12204;50.600;4.608;2024-03-23T13:03:02;20.70;69.50
22416;DHT22;12204;50.600;4.608;2024-03-23T13:08:05;20.70;69.60
22416;DHT22;12204;50.600;4.608;2024-03-23T13:13:09;20.70;69.60
22416;DHT22;12204;50.600;4.608;2024-03-23T13:18:13;20.70;69.90
22416;DHT22;12204;50.600;4.608;2024-03-23T13:23:15;20.80;70.20
22416;DHT22;12204;50.600;4.608;2024-03-23T13:28:18;20.80;69.90
22416;DHT22;12204;50.600;4.608;2024-03-23T13:33:22;20.80;69.60
22416;DHT22;12204;50.600;4.608;2024-03-23T13:38:25;20.70;69.60
22416;DHT22;12204;50.600;4.608;2024-03-23T13:43:28;20.70;69.20
22416;DHT22;12204;50.600;4.608;2024-03-23T13:48:32;20.70;69.40
22416;DHT22;12204;50.600;4.608;2024-03-23T13:53:34;20.70;69.70
22416;DHT22;12204;50.600;4.608;2024-03-23T13:58:37;20.80;69.50
22416;DHT22;12204;50.600;4.608;2024-03-23T14:03:42;20.80;69.40
22416;DHT22;12204;50.600;4.608;2024-03-23T14:08:45;20.80;69.40
22416;DHT22;12204;50.600;4.608;2024-03-23T14:13:47;20.70;69.20
22416;DHT22;12204;50.600;4.608;2024-03-23T14:18:51;20.80;69.30
22416;DHT22;12204;50.600;4.608;2024-03-23T14:23:53;20.80;69.20
22416;DHT22;12204;50.600;4.608;2024-03-23T14:28:56;20.90;69.30
22416;DHT22;12204;50.600;4.608;2024-03-23T14:34:00;21.00;69.10
22416;DHT22;12204;50.600;4.608;2024-03-23T14:39:03;21.00;69.10
22416;DHT22;12204;50.600;4.608;2024-03-23T14:44:05;21.00;69.10
22416;DHT22;12204;50.600;4.608;2024-03-23T14:49:14;21.00;68.90
22416;DHT22;12204;50.600;4.608;2024-03-23T14:54:18;21.00;68.50
22416;DHT22;12204;50.600;4.608;2024-03-23T14:59:20;20.90;68.70
22416;DHT22;12204;50.600;4.608;2024-03-23T15:04:24;21.00;69.00
22416;DHT22;12204;50.600;4.608;2024-03-23T15:09:26;21.10;70.00
22416;DHT22;12204;50.600;4.608;2024-03-23T15:14:29;21.20;70.40
22416;DHT22;12204;50.600;4.608;2024-03-23T15:19:33;21.30;70.90
22416;DHT22;12204;50.600;4.608;2024-03-23T15:24:35;21.30;68.20
22416;DHT22;12204;50.600;4.608;2024-03-23T15:29:38;21.20;62.90
22416;DHT22;12204;50.600;4.608;2024-03-23T15:34:41;21.20;62.50
22416;DHT22;12204;50.600;4.608;2024-03-23T15:39:44;21.20;60.40
22416;DHT22;12204;50.600;4.608;2024-03-23T15:44:46;21.10;59.00
22416;DHT22;12204;50.600;4.608;2024-03-23T15:49:51;21.10;57.60
22416;DHT22;12204;50.600;4.608;2024-03-23T15:54:56;21.00;57.50
22416;DHT22;12204;50.600;4.608;2024-03-23T16:00:00;21.00;56.70
22416;DHT22;12204;50.600;4.608;2024-03-23T16:05:14;21.00;56.50
22416;DHT22;12204;50.600;4.608;2024-03-23T16:10:16;21.00;58.10
22416;DHT22;12204;50.600;4.608;2024-03-23T16:15:19;21.00;58.30
22416;DHT22;12204;50.600;4.608;2024-03-23T16:20:22;20.90;59.80
22416;DHT22;12204;50.600;4.608;2024-03-23T16:25:25;21.00;61.00
22416;DHT22;12204;50.600;4.608;2024-03-23T16:30:28;20.90;61.50
22416;DHT22;12204;50.600;4.608;2024-03-23T16:35:32;20.90;62.00
22416;DHT22;12204;50.600;4.608;2024-03-23T16:40:35;20.90;63.70
22416;DHT22;12204;50.600;4.608;2024-03-23T16:45:37;20.90;63.60
22416;DHT22;12204;50.600;4.608;2024-03-23T16:50:41;20.90;63.90
22416;DHT22;12204;50.600;4.608;2024-03-23T16:55:44;20.90;64.20
22416;DHT22;12204;50.600;4.608;2024-03-23T17:00:47;20.90;64.90
22416;DHT22;12204;50.600;4.608;2024-03-23T17:05:52;20.90;65.20
22416;DHT22;12204;50.600;4.608;2024-03-23T17:10:57;20.90;65.40
22416;DHT22;12204;50.600;4.608;2024-03-23T17:16:02;20.90;65.70
22416;DHT22;12204;50.600;4.608;2024-03-23T17:21:07;20.90;66.10
22416;DHT22;12204;50.600;4.608;2024-03-23T17:26:10;20.90;66.20
22416;DHT22;12204;50.600;4.608;2024-03-23T17:31:17;20.80;66.10
22416;DHT22;12204;50.600;4.608;2024-03-23T17:36:21;20.80;66.80
22416;DHT22;12204;50.600;4.608;2024-03-23T17:41:28;20.80;69.30
22416;DHT22;12204;50.600;4.608;2024-03-23T17:46:30;20.90;69.30
22416;DHT22;12204;50.600;4.608;2024-03-23T17:51:34;20.80;69.20
22416;DHT22;12204;50.600;4.608;2024-03-23T17:56:36;20.80;68.90
22416;DHT22;12204;50.600;4.608;2024-03-23T18:01:39;20.80;68.50
22416;DHT22;12204;50.600;4.608;2024-03-23T18:06:43;20.70;68.40
22416;DHT22;12204;50.600;4.608;2024-03-23T18:11:47;20.80;68.40
22416;DHT22;12204;50.600;4.608;2024-03-23T18:16:50;20.90;68.90
22416;DHT22;12204;50.600;4.608;2024-03-23T18:21:54;21.00;68.60
22416;DHT22;12204;50.600;4.608;2024-03-23T18:26:56;21.10;68.00
22416;DHT22;12204;50.600;4.608;2024-03-23T18:31:58;21.20;67.90
22416;DHT22;12204;50.600;4.608;2024-03-23T18:37:02;21.20;67.40
22416;DHT22;12204;50.600;4.608;2024-03-23T18:42:06;21.30;67.60
22416;DHT22;12204;50.600;4.608;2024-03-23T18:47:09;21.30;67.30
22416;DHT22;12204;50.600;4.608;2024-03-23T18:52:13;21.40;68.10
22416;DHT22;12204;50.600;4.608;2024-03-23T18:57:15;21.40;67.90
22416;DHT22;12204;50.600;4.608;2024-03-23T19:02:18;21.50;68.00
22416;DHT22;12204;50.600;4.608;2024-03-23T19:07:21;21.50;67.60
22416;DHT22;12204;50.600;4.608;2024-03-23T19:12:24;21.50;67.50
22416;DHT22;12204;50.600;4.608;2024-03-23T19:17:27;21.50;67.90
22416;DHT22;12204;50.600;4.608;2024-03-23T19:22:30;21.50;67.30
22416;DHT22;12204;50.600;4.608;2024-03-23T19:27:33;21.50;67.50
22416;DHT22;12204;50.600;4.608;2024-03-23T19:32:40;21.50;67.20
22416;DHT22;12204;50.600;4.608;2024-03-23T19:37:44;21.50;66.80
22416;DHT22;12204;50.600;4.608;2024-03-23T19:42:47;21.50;66.60
22416;DHT22;12204;50.600;4.608;2024-03-23T19:47:50;21.50;66.40
22416;DHT22;12204;50.600;4.608;2024-03-23T19:52:54;21.40;66.50
22416;DHT22;12204;50.600;4.608;2024-03-23T19:57:56;21.40;66.50
22416;DHT22;12204;50.600;4.608;2024-03-23T20:03:00;21.40;66.70
22416;DHT22;12204;50.600;4.608;2024-03-23T20:08:08;21.40;67.00
22416;DHT22;12204;50.600;4.608;2024-03-23T20:13:10;21.40;66.90
22416;DHT22;12204;50.600;4.608;2024-03-23T20:18:13;21.30;67.00
22416;DHT22;12204;50.600;4.608;2024-03-23T20:23:17;21.30;67.10
22416;DHT22;12204;50.600;4.608;2024-03-23T20:28:19;21.20;67.30
22416;DHT22;12204;50.600;4.608;2024-03-23T20:33:22;21.20;67.50
22416;DHT22;12204;50.600;4.608;2024-03-23T20:38:26;21.20;67.70
22416;DHT22;12204;50.600;4.608;2024-03-23T20:43:28;21.20;69.00
22416;DHT22;12204;50.600;4.608;2024-03-23T20:48:31;21.20;68.20
22416;DHT22;12204;50.600;4.608;2024-03-23T20:53:37;21.30;68.50
22416;DHT22;12204;50.600;4.608;2024-03-23T20:58:39;21.30;68.90
22416;DHT22;12204;50.600;4.608;2024-03-23T21:03:42;21.30;68.30
22416;DHT22;12204;50.600;4.608;2024-03-23T21:08:45;21.40;68.30
22416;DHT22;12204;50.600;4.608;2024-03-23T21:13:48;21.40;68.40
22416;DHT22;12204;50.600;4.608;2024-03-23T21:18:50;21.40;68.40
22416;DHT22;12204;50.600;4.608;2024-03-23T21:23:56;21.40;68.50
22416;DHT22;12204;50.600;4.608;2024-03-23T21:28:59;21.40;68.40
22416;DHT22;12204;50.600;4.608;2024-03-23T21:34:01;21.40;68.60
22416;DHT22;12204;50.600;4.608;2024-03-23T21:39:05;21.50;68.30
22416;DHT22;12204;50.600;4.608;2024-03-23T21:44:08;21.40;68.30
22416;DHT22;12204;50.600;4.608;2024-03-23T21:49:10;21.40;68.20
22416;DHT22;12204;50.600;4.608;2024-03-23T21:54:14;21.40;68.30
22416;DHT22;12204;50.600;4.608;2024-03-23T21:59:17;21.40;68.20
22416;DHT22;12204;50.600;4.608;2024-03-23T22:04:19;21.40;68.00
22416;DHT22;12204;50.600;4.608;2024-03-23T22:09:23;21.40;70.20
22416;DHT22;12204;50.600;4.608;2024-03-23T22:14:25;21.50;71.30
22416;DHT22;12204;50.600;4.608;2024-03-23T22:19:28;21.50;71.70
22416;DHT22;12204;50.600;4.608;2024-03-23T22:24:32;21.50;72.10
22416;DHT22;12204;50.600;4.608;2024-03-23T22:29:35;21.50;72.40
22416;DHT22;12204;50.600;4.608;2024-03-23T22:34:37;21.50;72.60
22416;DHT22;12204;50.600;4.608;2024-03-23T22:39:43;21.50;73.10
22416;DHT22;12204;50.600;4.608;2024-03-23T22:44:45;21.50;75.10
22416;DHT22;12204;50.600;4.608;2024-03-23T22:49:48;21.50;74.00
22416;DHT22;12204;50.600;4.608;2024-03-23T22:54:52;21.50;74.20
22416;DHT22;12204;50.600;4.608;2024-03-23T22:59:54;21.50;74.40
22416;DHT22;12204;50.600;4.608;2024-03-23T23:04:57;21.50;74.70
22416;DHT22;12204;50.600;4.608;2024-03-23T23:10:00;21.50;74.80
22416;DHT22;12204;50.600;4.608;2024-03-23T23:15:04;21.50;74.70
22416;DHT22;12204;50.600;4.608;2024-03-23T23:20:08;21.50;74.80
22416;DHT22;12204;50.600;4.608;2024-03-23T23:25:13;21.50;74.70
22416;DHT22;12204;50.600;4.608;2024-03-23T23:30:15;21.50;74.70
22416;DHT22;12204;50.600;4.608;2024-03-23T23:35:18;21.50;74.60
22416;DHT22;12204;50.600;4.608;2024-03-23T23:40:22;21.50;74.50
22416;DHT22;12204;50.600;4.608;2024-03-23T23:45:25;21.50;74.50
22416;DHT22;12204;50.600;4.608;2024-03-23T23:50:28;21.50;74.40
22416;DHT22;12204;50.600;4.608;2024-03-23T23:55:31;21.40;74.30
